createdAt,value
2022-12-04T00:00:20.861Z,97967.03
2022-12-04T00:02:47.289Z,97962.91
2022-12-04T00:05:13.879Z,97965.78
2022-12-04T00:07:40.434Z,97956.09
2022-12-04T00:10:07.245Z,97955.97
2022-12-04T00:12:34.472Z,97945.97
2022-12-04T00:15:24.779Z,97957.34
2022-12-04T00:17:48.497Z,97955.34
2022-12-04T00:20:15.223Z,97947.44
2022-12-04T00:22:41.680Z,97957.91
2022-12-04T00:25:08.233Z,97959.59
2022-12-04T00:27:34.701Z,97954.69
2022-12-04T00:30:01.129Z,97952.16
2022-12-04T00:32:27.564Z,97941.06
2022-12-04T00:34:54.037Z,97942.75
2022-12-04T00:37:20.502Z,97952.16
2022-12-04T00:39:46.929Z,97948.72
2022-12-04T00:42:13.371Z,97958.09
2022-12-04T00:44:39.777Z,97964.09
2022-12-04T00:47:06.239Z,97966.63
2022-12-04T00:49:32.672Z,97963.00
2022-12-04T00:51:59.085Z,97946.38
2022-12-04T00:54:25.581Z,97952.34
2022-12-04T00:56:52.061Z,97947.66
2022-12-04T00:59:18.515Z,97947.66
2022-12-04T01:01:45.041Z,97943.81
2022-12-04T01:04:11.531Z,97938.16
2022-12-04T01:06:37.988Z,97942.78
2022-12-04T01:09:05.149Z,97952.78
2022-12-04T01:11:32.110Z,97949.59
2022-12-04T01:13:59.156Z,97949.47
2022-12-04T01:16:30.592Z,97949.78
2022-12-04T01:18:57.249Z,97941.91
2022-12-04T01:21:23.735Z,97941.69
2022-12-04T01:23:50.234Z,97931.78
2022-12-04T01:26:16.775Z,97931.00
2022-12-04T01:28:43.274Z,97925.25
2022-12-04T01:31:14.508Z,97924.50
2022-12-04T01:33:41.143Z,97932.31
2022-12-04T01:36:09.174Z,97922.81
2022-12-04T01:38:35.809Z,97925.25
2022-12-04T01:41:02.646Z,97907.97
2022-12-04T01:43:30.181Z,97907.34
2022-12-04T01:45:57.558Z,97907.88
2022-12-04T01:48:56.245Z,97897.00
2022-12-04T01:51:30.422Z,97893.41
2022-12-04T01:53:59.286Z,97909.91
2022-12-04T01:56:29.418Z,97901.78
2022-12-04T01:58:58.795Z,97898.06
2022-12-04T02:01:27.710Z,97889.75
2022-12-04T02:03:54.476Z,97882.56
2022-12-04T02:06:20.985Z,97888.03
2022-12-04T02:08:47.471Z,97889.66
2022-12-04T02:11:13.861Z,97889.84
2022-12-04T02:13:43.460Z,97897.53
2022-12-04T02:16:12.688Z,97890.69
2022-12-04T02:18:59.396Z,97887.81
2022-12-04T02:21:36.316Z,97894.09
2022-12-04T02:24:09.992Z,97889.81
2022-12-04T02:26:36.409Z,97886.19
2022-12-04T02:29:08.011Z,97882.47
2022-12-04T02:31:37.131Z,97882.81
2022-12-04T02:34:09.585Z,97875.22
2022-12-04T02:36:47.286Z,97859.53
2022-12-04T02:39:23.077Z,97868.59
2022-12-04T02:41:56.106Z,97855.69
2022-12-04T02:44:25.561Z,97864.97
2022-12-04T02:46:55.968Z,97870.00
2022-12-04T02:49:25.426Z,97875.53
2022-12-04T02:51:54.437Z,97869.88
2022-12-04T02:54:36.134Z,97874.50
2022-12-04T02:57:04.809Z,97884.38
2022-12-04T02:59:42.582Z,97884.09
2022-12-04T03:02:11.964Z,97883.22
2022-12-04T03:04:39.553Z,97884.50
2022-12-04T03:07:09.575Z,97872.34
2022-12-04T03:09:38.958Z,97875.25
2022-12-04T03:12:16.784Z,97873.44
2022-12-04T03:14:47.957Z,97881.06
2022-12-04T03:17:20.822Z,97873.16
2022-12-04T03:19:50.913Z,97871.53
2022-12-04T03:22:19.529Z,97875.88
2022-12-04T03:24:50.709Z,97879.13
2022-12-04T03:27:20.242Z,97874.66
2022-12-04T03:29:55.240Z,97882.75
2022-12-04T03:32:38.136Z,97870.69
2022-12-04T03:35:10.767Z,97872.53
2022-12-04T03:37:41.135Z,97867.06
2022-12-04T03:40:10.820Z,97868.09
2022-12-04T03:42:44.959Z,97862.50
2022-12-04T03:45:17.440Z,97865.69
2022-12-04T03:47:53.781Z,97879.97
2022-12-04T03:50:34.031Z,97868.50
2022-12-04T03:53:20.705Z,97869.09
2022-12-04T03:55:51.795Z,97864.41
2022-12-04T03:58:21.568Z,97882.56
2022-12-04T04:00:50.809Z,97887.81
2022-12-04T04:03:22.213Z,97882.16
2022-12-04T04:05:53.048Z,97878.50
2022-12-04T04:08:26.194Z,97875.75
2022-12-04T04:10:59.074Z,97877.56
2022-12-04T04:13:47.000Z,97881.00
2022-12-04T04:16:35.325Z,97878.75
2022-12-04T04:19:21.140Z,97863.97
2022-12-04T04:22:08.429Z,97875.53
2022-12-04T04:24:41.807Z,97873.00
2022-12-04T04:27:08.456Z,97874.69
2022-12-04T04:29:35.086Z,97867.22
2022-12-04T04:32:24.303Z,97866.81
2022-12-04T04:34:56.388Z,97868.09
2022-12-04T04:37:29.397Z,97869.16
2022-12-04T04:39:55.879Z,97868.28
2022-12-04T04:42:31.375Z,97868.72
2022-12-04T04:45:04.044Z,97856.88
2022-12-04T04:47:33.666Z,97857.09
2022-12-04T04:50:01.854Z,97860.38
2022-12-04T04:52:28.709Z,97860.94
2022-12-04T04:54:55.803Z,97860.63
2022-12-04T04:57:25.749Z,97854.91
2022-12-04T04:59:52.260Z,97870.88
2022-12-04T05:02:18.754Z,97876.66
2022-12-04T05:04:45.183Z,97874.41
2022-12-04T05:07:11.611Z,97869.78
2022-12-04T05:09:41.260Z,97876.50
2022-12-04T05:12:08.484Z,97883.25
2022-12-04T05:14:34.948Z,97882.56
2022-12-04T05:17:02.151Z,97877.91
2022-12-04T05:19:50.723Z,97884.81
2022-12-04T05:22:17.261Z,97877.25
2022-12-04T05:24:43.686Z,97874.06
2022-12-04T05:27:10.102Z,97873.19
2022-12-04T05:29:36.609Z,97866.25
2022-12-04T05:32:03.295Z,97869.75
2022-12-04T05:34:29.815Z,97873.63
2022-12-04T05:36:56.256Z,97878.09
2022-12-04T05:39:22.661Z,97880.88
2022-12-04T05:41:49.140Z,97884.09
2022-12-04T05:44:15.737Z,97880.47
2022-12-04T05:46:42.469Z,97883.88
2022-12-04T05:49:08.929Z,97886.47
2022-12-04T05:51:35.407Z,97895.41
2022-12-04T05:54:01.850Z,97904.16
2022-12-04T05:56:28.312Z,97905.75
2022-12-04T05:58:54.785Z,97909.91
2022-12-04T06:01:22.691Z,97916.50
2022-12-04T06:03:49.173Z,97909.06
2022-12-04T06:06:21.443Z,97906.50
2022-12-04T06:08:49.000Z,97889.31
2022-12-04T06:11:17.120Z,97886.34
2022-12-04T06:13:44.830Z,97886.53
2022-12-04T06:16:14.414Z,97888.59
2022-12-04T06:18:41.176Z,97902.97
2022-12-04T06:21:08.229Z,97894.78
2022-12-04T06:23:34.669Z,97898.16
2022-12-04T06:26:07.264Z,97895.16
2022-12-04T06:28:34.362Z,97883.88
2022-12-04T06:31:01.748Z,97885.94
2022-12-04T06:33:28.355Z,97890.25
2022-12-04T06:36:05.585Z,97893.91
2022-12-04T06:38:32.660Z,97893.16
2022-12-04T06:40:59.139Z,97894.53
2022-12-04T06:43:25.705Z,97893.69
2022-12-04T06:46:02.504Z,97896.47
2022-12-04T06:48:29.398Z,97894.13
2022-12-04T06:51:00.164Z,97894.34
2022-12-04T06:53:27.788Z,97881.53
2022-12-04T06:55:54.945Z,97879.16
2022-12-04T06:58:21.384Z,97870.16
2022-12-04T07:00:48.033Z,97879.34
2022-12-04T07:03:14.545Z,97875.47
2022-12-04T07:05:40.957Z,97878.16
2022-12-04T07:08:07.483Z,97864.59
2022-12-04T07:10:35.760Z,97863.75
2022-12-04T07:13:02.749Z,97864.81
2022-12-04T07:15:29.328Z,97876.16
2022-12-04T07:17:55.800Z,97888.09
2022-12-04T07:20:22.291Z,97891.38
2022-12-04T07:22:48.737Z,97903.28
2022-12-04T07:25:15.207Z,97908.59
2022-12-04T07:27:41.625Z,97898.56
2022-12-04T07:30:14.049Z,97888.09
2022-12-04T07:32:42.047Z,97878.78
2022-12-04T07:35:08.549Z,97867.03
2022-12-04T07:37:35.789Z,97864.22
2022-12-04T07:40:02.617Z,97865.16
2022-12-04T07:42:29.261Z,97870.22
2022-12-04T07:44:55.735Z,97887.25
2022-12-04T07:47:22.185Z,97885.56
2022-12-04T07:49:48.618Z,97887.72
2022-12-04T07:52:15.052Z,97888.59
2022-12-04T07:54:41.546Z,97877.19
2022-12-04T07:57:07.998Z,97874.81
2022-12-04T07:59:34.458Z,97885.25
2022-12-04T08:02:01.019Z,97890.06
2022-12-04T08:04:27.659Z,97896.63
2022-12-04T08:06:54.109Z,97899.59
2022-12-04T08:09:20.630Z,97885.13
2022-12-04T08:11:47.053Z,97890.50
2022-12-04T08:14:13.589Z,97903.06
2022-12-04T08:16:40.094Z,97894.13
2022-12-04T08:19:06.719Z,97886.59
2022-12-04T08:21:33.334Z,97887.31
2022-12-04T08:24:00.208Z,97882.22
2022-12-04T08:26:28.132Z,97890.06
2022-12-04T08:28:55.336Z,97883.69
2022-12-04T08:31:23.427Z,97885.25
2022-12-04T08:33:50.847Z,97888.47
2022-12-04T08:36:19.309Z,97882.34
2022-12-04T08:38:46.345Z,97879.44
2022-12-04T08:41:14.067Z,97881.63
2022-12-04T08:43:40.939Z,97881.88
2022-12-04T08:46:12.811Z,97890.34
2022-12-04T08:48:39.573Z,97876.78
2022-12-04T08:51:08.212Z,97874.59
2022-12-04T08:53:36.463Z,97881.81
2022-12-04T08:56:03.326Z,97878.91
2022-12-04T08:58:29.950Z,97878.34
2022-12-04T09:00:56.455Z,97878.94
2022-12-04T09:03:27.672Z,97888.81
2022-12-04T09:05:58.570Z,97887.91
2022-12-04T09:08:24.973Z,97889.88
2022-12-04T09:10:51.400Z,97895.31
2022-12-04T09:13:18.007Z,97886.00
2022-12-04T09:15:44.513Z,97894.06
2022-12-04T09:18:11.025Z,97893.72
2022-12-04T09:20:37.545Z,97892.56
2022-12-04T09:23:05.442Z,97884.28
2022-12-04T09:25:35.111Z,97877.88
2022-12-04T09:28:01.596Z,97889.34
2022-12-04T09:30:28.040Z,97890.03
2022-12-04T09:32:54.546Z,97895.63
2022-12-04T09:35:21.031Z,97901.91
2022-12-04T09:37:47.436Z,97903.31
2022-12-04T09:40:35.224Z,97892.56
2022-12-04T09:43:27.301Z,97885.56
2022-12-04T09:45:55.837Z,97893.34
2022-12-04T09:48:27.137Z,97891.88
2022-12-04T09:50:54.469Z,97892.28
2022-12-04T09:53:25.556Z,97887.63
2022-12-04T09:55:58.955Z,97876.53
2022-12-04T09:58:28.838Z,97880.84
2022-12-04T10:00:56.292Z,97880.53
2022-12-04T10:03:25.406Z,97880.53
2022-12-04T10:06:00.077Z,97887.75
2022-12-04T10:08:32.061Z,97876.91
2022-12-04T10:10:58.510Z,97875.50
2022-12-04T10:13:33.774Z,97881.19
2022-12-04T10:16:03.312Z,97879.53
2022-12-04T10:18:37.751Z,97882.84
2022-12-04T10:21:11.328Z,97880.81
2022-12-04T10:23:40.773Z,97883.75
2022-12-04T10:26:13.229Z,97873.94
2022-12-04T10:28:41.586Z,97876.38
2022-12-04T10:31:11.452Z,97869.06
2022-12-04T10:33:41.201Z,97864.03
2022-12-04T10:36:13.760Z,97871.34
2022-12-04T10:38:43.405Z,97865.50
2022-12-04T10:41:16.851Z,97859.19
2022-12-04T10:43:45.303Z,97861.22
2022-12-04T10:46:31.814Z,97859.88
2022-12-04T10:49:13.901Z,97857.44
2022-12-04T10:51:42.330Z,97853.03
2022-12-04T10:54:21.289Z,97847.75
2022-12-04T10:56:58.853Z,97849.44
2022-12-04T10:59:25.929Z,97856.41
2022-12-04T11:02:03.110Z,97852.00
2022-12-04T11:04:34.089Z,97844.31
2022-12-04T11:07:20.651Z,97833.50
2022-12-04T11:09:58.554Z,97832.69
2022-12-04T11:12:25.714Z,97834.06
2022-12-04T11:15:07.454Z,97846.31
2022-12-04T11:17:35.772Z,97844.84
2022-12-04T11:20:05.814Z,97845.63
2022-12-04T11:22:32.465Z,97839.97
2022-12-04T11:24:59.525Z,97829.03
2022-12-04T11:27:31.452Z,97828.75
2022-12-04T11:30:00.744Z,97824.81
2022-12-04T11:32:32.241Z,97815.19
2022-12-04T11:35:01.399Z,97813.69
2022-12-04T11:37:30.039Z,97818.03
2022-12-04T11:39:56.807Z,97822.63
2022-12-04T11:42:28.227Z,97815.09
2022-12-04T11:45:03.477Z,97801.53
2022-12-04T11:47:31.808Z,97805.34
2022-12-04T11:50:13.740Z,97798.03
2022-12-04T11:52:47.794Z,97793.34
2022-12-04T11:55:32.712Z,97781.78
2022-12-04T11:58:17.987Z,97788.97
2022-12-04T12:00:49.156Z,97791.44
2022-12-04T12:03:19.996Z,97788.03
2022-12-04T12:06:05.118Z,97787.53
2022-12-04T12:08:43.369Z,97784.41
2022-12-04T12:11:12.805Z,97774.41
2022-12-04T12:13:39.210Z,97771.19
2022-12-04T12:16:11.698Z,97772.47
2022-12-04T12:18:53.143Z,97777.59
2022-12-04T12:21:27.255Z,97772.53
2022-12-04T12:24:02.156Z,97770.31
2022-12-04T12:26:43.344Z,97759.66
2022-12-04T12:29:18.819Z,97764.94
2022-12-04T12:31:45.466Z,97764.47
2022-12-04T12:34:16.400Z,97765.31
2022-12-04T12:36:46.599Z,97760.31
2022-12-04T12:39:19.455Z,97769.56
2022-12-04T12:41:50.207Z,97759.13
2022-12-04T12:44:16.618Z,97755.47
2022-12-04T12:46:51.598Z,97751.16
2022-12-04T12:49:23.938Z,97750.97
2022-12-04T12:51:54.677Z,97751.34
2022-12-04T12:54:21.105Z,97749.94
2022-12-04T12:56:50.801Z,97754.41
2022-12-04T12:59:20.169Z,97750.78
2022-12-04T13:01:53.705Z,97760.75
2022-12-04T13:04:29.249Z,97759.59
2022-12-04T13:07:05.561Z,97756.22
2022-12-04T13:09:34.996Z,97752.56
2022-12-04T13:12:12.556Z,97760.59
2022-12-04T13:14:39.046Z,97760.88
2022-12-04T13:17:14.258Z,97765.00
2022-12-04T13:19:43.446Z,97756.63
2022-12-04T13:22:22.454Z,97756.09
2022-12-04T13:25:09.069Z,97759.41
2022-12-04T13:27:35.604Z,97765.78
2022-12-04T13:30:08.267Z,97753.06
2022-12-04T13:32:46.339Z,97760.34
2022-12-04T13:35:37.345Z,97762.31
2022-12-04T13:38:21.134Z,97760.81
2022-12-04T13:40:58.790Z,97766.28
2022-12-04T13:43:31.891Z,97765.19
2022-12-04T13:46:00.484Z,97766.66
2022-12-04T13:48:42.003Z,97755.72
2022-12-04T13:51:14.520Z,97766.66
2022-12-04T13:53:42.652Z,97758.25
2022-12-04T13:56:24.501Z,97754.72
2022-12-04T13:58:59.148Z,97760.28
2022-12-04T14:01:28.988Z,97766.38
2022-12-04T14:03:57.418Z,97764.91
2022-12-04T14:06:34.096Z,97773.19
2022-12-04T14:09:04.458Z,97771.13
2022-12-04T14:11:34.508Z,97771.34
2022-12-04T14:14:07.801Z,97764.91
2022-12-04T14:16:38.520Z,97770.25
2022-12-04T14:19:06.125Z,97776.94
2022-12-04T14:21:40.137Z,97772.28
2022-12-04T14:24:16.324Z,97777.22
2022-12-04T14:29:48.082Z,97768.13
2022-12-04T14:32:21.462Z,97771.28
2022-12-04T14:34:49.278Z,97770.06
2022-12-04T14:37:41.939Z,97773.09
2022-12-04T14:40:16.727Z,97773.75
2022-12-04T14:42:43.345Z,97773.47
2022-12-04T14:45:20.208Z,97782.69
2022-12-04T14:47:52.639Z,97778.25
2022-12-04T14:50:25.425Z,97782.34
2022-12-04T14:52:59.461Z,97784.28
2022-12-04T14:55:25.967Z,97788.94
2022-12-04T14:57:57.909Z,97794.41
2022-12-04T15:00:24.988Z,97789.44
2022-12-04T15:02:59.556Z,97793.72
2022-12-04T15:05:30.309Z,97786.03
2022-12-04T15:07:59.669Z,97789.44
2022-12-04T15:10:46.564Z,97794.31
2022-12-04T15:13:21.374Z,97790.91
2022-12-04T15:15:48.625Z,97789.69
2022-12-04T15:18:16.605Z,97791.75
2022-12-04T15:20:49.043Z,97793.56
2022-12-04T15:23:17.193Z,97796.88
2022-12-04T15:25:45.936Z,97805.88
2022-12-04T15:28:21.056Z,97794.97
2022-12-04T15:30:48.526Z,97790.84
2022-12-04T15:33:21.393Z,97790.28
2022-12-04T15:35:51.617Z,97799.47
2022-12-04T15:38:18.266Z,97802.31
2022-12-04T15:40:56.144Z,97798.44
2022-12-04T15:43:26.085Z,97803.53
2022-12-04T15:45:53.306Z,97797.94
2022-12-04T15:48:23.433Z,97798.69
2022-12-04T15:51:00.720Z,97796.66
2022-12-04T15:53:29.349Z,97803.09
2022-12-04T15:55:57.997Z,97801.78
2022-12-04T15:58:25.512Z,97799.94
2022-12-04T16:01:22.016Z,97799.19
2022-12-04T16:03:49.939Z,97785.69
2022-12-04T16:06:22.237Z,97798.50
2022-12-04T16:08:50.626Z,97799.19
2022-12-04T16:11:22.918Z,97795.78
2022-12-04T16:13:50.364Z,97802.53
2022-12-04T16:16:19.334Z,97805.25
2022-12-04T16:18:46.260Z,97807.66
2022-12-04T16:21:17.099Z,97808.72
2022-12-04T16:23:44.039Z,97811.06
2022-12-04T16:26:18.269Z,97805.63
2022-12-04T16:28:44.989Z,97803.25
2022-12-04T16:31:12.549Z,97812.22
2022-12-04T16:33:39.155Z,97814.06
2022-12-04T16:36:06.125Z,97816.53
2022-12-04T16:38:32.562Z,97823.19
2022-12-04T16:40:59.011Z,97815.84
2022-12-04T16:43:25.549Z,97819.75
2022-12-04T16:45:53.106Z,97827.03
2022-12-04T16:48:19.779Z,97827.00
2022-12-04T16:50:46.440Z,97830.56
2022-12-04T16:53:17.133Z,97834.47
2022-12-04T16:55:45.069Z,97827.94
2022-12-04T16:58:11.531Z,97834.97
2022-12-04T17:00:39.173Z,97827.00
2022-12-04T17:03:05.823Z,97817.53
2022-12-04T17:05:35.653Z,97829.81
2022-12-04T17:08:02.164Z,97832.28
2022-12-04T17:10:30.050Z,97839.94
2022-12-04T17:12:57.411Z,97838.16
2022-12-04T17:15:23.909Z,97850.47
2022-12-04T17:17:50.686Z,97842.44
2022-12-04T17:20:18.478Z,97848.22
2022-12-04T17:22:45.079Z,97852.06
2022-12-04T17:25:12.592Z,97845.91
2022-12-04T17:27:39.480Z,97851.28
2022-12-04T17:30:07.424Z,97841.63
2022-12-04T17:32:34.917Z,97843.22
2022-12-04T17:35:02.194Z,97850.50
2022-12-04T17:37:28.610Z,97862.78
2022-12-04T17:39:55.087Z,97854.66
2022-12-04T17:42:21.601Z,97854.13
2022-12-04T17:44:48.112Z,97852.41
2022-12-04T17:47:14.629Z,97849.47
2022-12-04T17:49:41.343Z,97849.47
2022-12-04T17:52:07.823Z,97852.28
2022-12-04T17:54:34.780Z,97856.19
2022-12-04T17:57:01.271Z,97846.38
2022-12-04T17:59:27.896Z,97858.91
2022-12-04T18:01:54.337Z,97857.22
2022-12-04T18:04:21.098Z,97861.28
2022-12-04T18:06:47.565Z,97860.75
2022-12-04T18:09:15.504Z,97866.19
2022-12-04T18:11:43.357Z,97862.97
2022-12-04T18:14:14.278Z,97869.38
2022-12-04T18:16:42.369Z,97871.31
2022-12-04T18:19:08.942Z,97862.56
2022-12-04T18:21:35.360Z,97855.69
2022-12-04T18:24:03.176Z,97865.97
2022-12-04T18:26:34.369Z,97860.50
2022-12-04T18:29:00.812Z,97869.56
2022-12-04T18:31:27.620Z,97879.31
2022-12-04T18:33:54.155Z,97878.13
2022-12-04T18:36:22.683Z,97879.19
2022-12-04T18:38:59.481Z,97882.72
2022-12-04T18:41:26.636Z,97873.03
2022-12-04T18:43:53.163Z,97882.84
2022-12-04T18:46:20.000Z,97888.69
2022-12-04T18:48:47.180Z,97894.34
2022-12-04T18:51:23.135Z,97894.88
2022-12-04T18:53:50.715Z,97891.69
2022-12-04T18:56:17.448Z,97896.16
2022-12-04T18:58:44.608Z,97903.72
2022-12-04T19:01:13.964Z,97898.84
2022-12-04T19:03:40.932Z,97899.13
2022-12-04T19:06:07.628Z,97895.41
2022-12-04T19:08:37.628Z,97898.41
2022-12-04T19:11:12.868Z,97892.84
2022-12-04T19:13:39.476Z,97896.28
2022-12-04T19:16:10.571Z,97897.53
2022-12-04T19:18:37.052Z,97893.50
2022-12-04T19:21:07.012Z,97891.03
2022-12-04T19:23:33.488Z,97901.25
2022-12-04T19:26:00.433Z,97894.78
2022-12-04T19:28:30.426Z,97889.13
2022-12-04T19:30:56.918Z,97900.50
2022-12-04T19:33:23.869Z,97903.31
2022-12-04T19:35:57.189Z,97895.09
2022-12-04T19:38:23.893Z,97897.13
2022-12-04T19:40:50.352Z,97902.75
2022-12-04T19:43:16.772Z,97908.84
2022-12-04T19:45:47.798Z,97904.78
2022-12-04T19:48:14.324Z,97913.31
2022-12-04T19:50:40.750Z,97913.53
2022-12-04T19:56:13.635Z,97916.63
2022-12-04T19:58:40.248Z,97905.31
2022-12-04T20:01:08.489Z,97903.41
2022-12-04T20:03:35.096Z,97899.69
2022-12-04T20:06:03.296Z,97897.53
2022-12-04T20:08:29.978Z,97894.91
2022-12-04T20:10:56.548Z,97885.13
2022-12-04T20:13:23.079Z,97888.16
2022-12-04T20:15:49.642Z,97884.34
2022-12-04T20:18:16.096Z,97890.03
2022-12-04T20:20:45.464Z,97893.03
2022-12-04T20:23:12.079Z,97885.94
2022-12-04T20:25:38.560Z,97883.41
2022-12-04T20:28:05.381Z,97885.16
2022-12-04T20:30:33.550Z,97884.97
2022-12-04T20:33:00.030Z,97878.69
2022-12-04T20:35:26.508Z,97878.31
2022-12-04T20:37:52.973Z,97867.56
2022-12-04T20:40:19.511Z,97877.31
2022-12-04T20:42:46.021Z,97880.44
2022-12-04T20:45:12.588Z,97873.22
2022-12-04T20:47:39.496Z,97882.56
2022-12-04T20:50:06.583Z,97889.19
2022-12-04T20:52:33.073Z,97884.28
2022-12-04T20:54:59.541Z,97889.63
2022-12-04T20:57:26.047Z,97881.69
2022-12-04T20:59:53.240Z,97890.91
2022-12-04T21:02:19.801Z,97897.31
2022-12-04T21:04:46.350Z,97890.47
2022-12-04T21:07:12.799Z,97881.41
2022-12-04T21:09:39.386Z,97877.03
2022-12-04T21:12:25.814Z,97873.59
2022-12-04T21:15:10.666Z,97881.28
2022-12-04T21:17:37.256Z,97885.75
2022-12-04T21:20:07.597Z,97882.13
2022-12-04T21:22:34.617Z,97876.34
2022-12-04T21:25:03.105Z,97885.97
2022-12-04T21:27:29.841Z,97896.00
2022-12-04T21:29:56.565Z,97891.09
2022-12-04T21:32:23.164Z,97897.09
2022-12-04T21:34:50.009Z,97898.13
2022-12-04T21:37:16.444Z,97889.50
2022-12-04T21:39:42.864Z,97894.31
2022-12-04T21:42:28.050Z,97882.56
2022-12-04T21:44:54.545Z,97881.69
2022-12-04T21:47:21.055Z,97885.03
2022-12-04T21:49:47.700Z,97890.00
2022-12-04T21:52:15.635Z,97888.97
2022-12-04T21:54:42.068Z,97883.31
2022-12-04T21:57:08.540Z,97882.75
2022-12-04T21:59:35.053Z,97882.97
2022-12-04T22:02:01.909Z,97886.59
2022-12-04T22:04:28.591Z,97883.88
2022-12-04T22:06:55.019Z,97888.63
2022-12-04T22:09:21.494Z,97884.22
2022-12-04T22:11:47.952Z,97890.84
2022-12-04T22:14:14.478Z,97899.19
2022-12-04T22:16:42.918Z,97897.81
2022-12-04T22:19:10.478Z,97904.16
2022-12-04T22:21:37.232Z,97897.13
2022-12-04T22:24:04.267Z,97896.66
2022-12-04T22:26:31.363Z,97882.50
2022-12-04T22:28:57.928Z,97883.09
2022-12-04T22:31:25.844Z,97882.69
2022-12-04T22:33:53.324Z,97878.34
2022-12-04T22:36:20.981Z,97880.03
2022-12-04T22:39:08.117Z,97879.31
2022-12-04T22:41:34.745Z,97868.72
2022-12-04T22:44:01.221Z,97869.28
2022-12-04T22:46:27.750Z,97869.81
2022-12-04T22:48:54.267Z,97874.13
2022-12-04T22:51:21.592Z,97871.69
2022-12-04T22:53:52.266Z,97871.25
2022-12-04T22:56:20.319Z,97877.91
2022-12-04T22:58:46.940Z,97883.88
2022-12-04T23:01:15.049Z,97883.03
2022-12-04T23:03:41.525Z,97878.56
2022-12-04T23:06:08.476Z,97883.69
2022-12-04T23:08:36.117Z,97874.09
2022-12-04T23:11:04.049Z,97877.69
2022-12-04T23:13:30.968Z,97864.25
2022-12-04T23:15:57.461Z,97868.09
2022-12-04T23:18:24.025Z,97863.59
2022-12-04T23:20:50.469Z,97867.00
2022-12-04T23:23:16.996Z,97866.84
2022-12-04T23:25:43.433Z,97871.78
2022-12-04T23:28:09.913Z,97872.69
2022-12-04T23:30:36.857Z,97869.78
2022-12-04T23:33:03.381Z,97878.78
2022-12-04T23:35:30.433Z,97879.59
2022-12-04T23:37:56.873Z,97883.75
2022-12-04T23:40:23.342Z,97893.03
2022-12-04T23:42:49.757Z,97893.25
2022-12-04T23:45:16.369Z,97893.50
2022-12-04T23:47:43.569Z,97886.22
2022-12-04T23:50:10.229Z,97889.00
2022-12-04T23:52:36.637Z,97872.88
2022-12-04T23:55:03.077Z,97886.00
2022-12-04T23:57:30.048Z,97877.28
2022-12-04T23:59:56.772Z,97869.34
